sensor_id;sensor_type;location;lat;lon;timestamp;P1;durP1;ratioP1;P2;durP2;ratioP2
25567;SDS011;13455;51.480;7.594;2023-01-25T00:01:52;30.60;;;23.10;;
25567;SDS011;13455;51.480;7.594;2023-01-25T00:04:19;33.95;;;24.30;;
25567;SDS011;13455;51.480;7.594;2023-01-25T00:06:44;34.58;;;24.20;;
25567;SDS011;13455;51.480;7.594;2023-01-25T00:09:11;33.85;;;24.65;;
25567;SDS011;13455;51.480;7.594;2023-01-25T00:11:37;37.10;;;25.60;;
25567;SDS011;13455;51.480;7.594;2023-01-25T00:14:03;34.67;;;25.15;;
25567;SDS011;13455;51.480;7.594;2023-01-25T00:16:29;32.88;;;23.77;;
25567;SDS011;13455;51.480;7.594;2023-01-25T00:18:55;36.35;;;25.00;;
25567;SDS011;13455;51.480;7.594;2023-01-25T00:21:21;35.80;;;24.90;;
25567;SDS011;13455;51.480;7.594;2023-01-25T00:23:48;33.13;;;23.88;;
25567;SDS011;13455;51.480;7.594;2023-01-25T00:26:14;34.58;;;25.02;;
25567;SDS011;13455;51.480;7.594;2023-01-25T00:28:40;35.13;;;25.40;;
25567;SDS011;13455;51.480;7.594;2023-01-25T00:31:06;37.00;;;25.27;;
25567;SDS011;13455;51.480;7.594;2023-01-25T00:36:25;36.63;;;25.25;;
25567;SDS011;13455;51.480;7.594;2023-01-25T00:38:48;34.17;;;23.83;;
25567;SDS011;13455;51.480;7.594;2023-01-25T00:41:18;35.55;;;24.45;;
25567;SDS011;13455;51.480;7.594;2023-01-25T00:43:44;35.00;;;24.00;;
25567;SDS011;13455;51.480;7.594;2023-01-25T00:46:13;34.08;;;24.75;;
25567;SDS011;13455;51.480;7.594;2023-01-25T00:48:39;34.17;;;23.98;;
25567;SDS011;13455;51.480;7.594;2023-01-25T00:51:05;36.33;;;25.17;;
25567;SDS011;13455;51.480;7.594;2023-01-25T00:53:30;34.40;;;24.03;;
25567;SDS011;13455;51.480;7.594;2023-01-25T00:55:56;33.67;;;24.30;;
25567;SDS011;13455;51.480;7.594;2023-01-25T00:58:21;34.23;;;23.50;;
25567;SDS011;13455;51.480;7.594;2023-01-25T01:00:47;34.13;;;23.83;;
25567;SDS011;13455;51.480;7.594;2023-01-25T01:03:13;34.80;;;24.70;;
25567;SDS011;13455;51.480;7.594;2023-01-25T01:05:38;34.45;;;24.05;;
25567;SDS011;13455;51.480;7.594;2023-01-25T01:08:04;36.03;;;24.88;;
25567;SDS011;13455;51.480;7.594;2023-01-25T01:10:30;35.38;;;23.98;;
25567;SDS011;13455;51.480;7.594;2023-01-25T01:12:55;33.60;;;23.60;;
25567;SDS011;13455;51.480;7.594;2023-01-25T01:15:21;34.07;;;23.87;;
25567;SDS011;13455;51.480;7.594;2023-01-25T01:17:47;33.88;;;23.67;;
25567;SDS011;13455;51.480;7.594;2023-01-25T01:20:13;33.55;;;23.30;;
25567;SDS011;13455;51.480;7.594;2023-01-25T01:22:39;35.58;;;24.13;;
25567;SDS011;13455;51.480;7.594;2023-01-25T01:25:05;34.83;;;23.67;;
25567;SDS011;13455;51.480;7.594;2023-01-25T01:27:31;35.42;;;24.40;;
25567;SDS011;13455;51.480;7.594;2023-01-25T01:29:57;33.35;;;23.50;;
25567;SDS011;13455;51.480;7.594;2023-01-25T01:32:23;34.88;;;22.95;;
25567;SDS011;13455;51.480;7.594;2023-01-25T01:34:49;34.78;;;23.38;;
25567;SDS011;13455;51.480;7.594;2023-01-25T01:37:15;35.17;;;23.55;;
25567;SDS011;13455;51.480;7.594;2023-01-25T01:39:41;34.60;;;23.08;;
25567;SDS011;13455;51.480;7.594;2023-01-25T01:42:07;30.90;;;21.38;;
25567;SDS011;13455;51.480;7.594;2023-01-25T01:47:16;30.60;;;21.48;;
25567;SDS011;13455;51.480;7.594;2023-01-25T01:49:46;31.63;;;20.87;;
25567;SDS011;13455;51.480;7.594;2023-01-25T01:52:15;31.48;;;21.15;;
25567;SDS011;13455;51.480;7.594;2023-01-25T01:54:43;31.43;;;21.20;;
25567;SDS011;13455;51.480;7.594;2023-01-25T01:59:45;32.53;;;21.55;;
25567;SDS011;13455;51.480;7.594;2023-01-25T02:02:13;30.13;;;20.77;;
25567;SDS011;13455;51.480;7.594;2023-01-25T02:04:39;31.98;;;21.48;;
25567;SDS011;13455;51.480;7.594;2023-01-25T02:07:09;31.37;;;21.17;;
25567;SDS011;13455;51.480;7.594;2023-01-25T02:09:36;34.20;;;22.35;;
25567;SDS011;13455;51.480;7.594;2023-01-25T02:12:03;35.13;;;23.65;;
25567;SDS011;13455;51.480;7.594;2023-01-25T02:14:30;34.40;;;22.65;;
25567;SDS011;13455;51.480;7.594;2023-01-25T02:16:57;34.00;;;22.77;;
25567;SDS011;13455;51.480;7.594;2023-01-25T02:19:42;34.20;;;23.30;;
25567;SDS011;13455;51.480;7.594;2023-01-25T02:22:12;36.07;;;23.90;;
25567;SDS011;13455;51.480;7.594;2023-01-25T02:24:41;37.80;;;25.20;;
25567;SDS011;13455;51.480;7.594;2023-01-25T02:27:08;37.33;;;24.13;;
25567;SDS011;13455;51.480;7.594;2023-01-25T02:29:34;37.40;;;24.70;;
25567;SDS011;13455;51.480;7.594;2023-01-25T02:32:04;37.53;;;24.33;;
25567;SDS011;13455;51.480;7.594;2023-01-25T02:34:30;36.25;;;23.75;;
25567;SDS011;13455;51.480;7.594;2023-01-25T02:36:56;36.63;;;23.15;;
25567;SDS011;13455;51.480;7.594;2023-01-25T02:39:22;36.97;;;24.33;;
25567;SDS011;13455;51.480;7.594;2023-01-25T02:41:50;36.03;;;23.75;;
25567;SDS011;13455;51.480;7.594;2023-01-25T02:44:17;35.80;;;23.67;;
25567;SDS011;13455;51.480;7.594;2023-01-25T02:46:44;36.67;;;24.30;;
25567;SDS011;13455;51.480;7.594;2023-01-25T02:49:11;35.38;;;22.75;;
25567;SDS011;13455;51.480;7.594;2023-01-25T02:51:40;34.08;;;22.23;;
25567;SDS011;13455;51.480;7.594;2023-01-25T02:54:07;35.65;;;22.75;;
25567;SDS011;13455;51.480;7.594;2023-01-25T02:56:34;35.35;;;23.40;;
25567;SDS011;13455;51.480;7.594;2023-01-25T02:59:00;35.05;;;23.35;;
25567;SDS011;13455;51.480;7.594;2023-01-25T03:01:30;35.38;;;23.08;;
25567;SDS011;13455;51.480;7.594;2023-01-25T03:03:56;37.75;;;23.63;;
25567;SDS011;13455;51.480;7.594;2023-01-25T03:06:22;35.55;;;23.38;;
25567;SDS011;13455;51.480;7.594;2023-01-25T03:08:48;36.17;;;23.27;;
25567;SDS011;13455;51.480;7.594;2023-01-25T03:11:14;35.28;;;23.30;;
25567;SDS011;13455;51.480;7.594;2023-01-25T03:13:40;39.28;;;24.98;;
25567;SDS011;13455;51.480;7.594;2023-01-25T03:16:07;37.40;;;23.88;;
25567;SDS011;13455;51.480;7.594;2023-01-25T03:18:34;37.97;;;23.40;;
25567;SDS011;13455;51.480;7.594;2023-01-25T03:21:04;37.30;;;24.60;;
25567;SDS011;13455;51.480;7.594;2023-01-25T03:23:30;35.33;;;24.00;;
25567;SDS011;13455;51.480;7.594;2023-01-25T03:26:16;37.17;;;24.33;;
25567;SDS011;13455;51.480;7.594;2023-01-25T03:28:42;37.33;;;24.45;;
25567;SDS011;13455;51.480;7.594;2023-01-25T03:31:09;37.63;;;24.45;;
25567;SDS011;13455;51.480;7.594;2023-01-25T03:33:35;42.25;;;26.40;;
25567;SDS011;13455;51.480;7.594;2023-01-25T03:36:01;37.38;;;24.92;;
25567;SDS011;13455;51.480;7.594;2023-01-25T03:38:28;39.33;;;24.90;;
25567;SDS011;13455;51.480;7.594;2023-01-25T03:40:54;38.90;;;24.52;;
25567;SDS011;13455;51.480;7.594;2023-01-25T03:43:20;40.35;;;26.23;;
25567;SDS011;13455;51.480;7.594;2023-01-25T03:45:56;38.60;;;24.80;;
25567;SDS011;13455;51.480;7.594;2023-01-25T03:48:23;39.28;;;25.27;;
25567;SDS011;13455;51.480;7.594;2023-01-25T03:50:53;41.03;;;26.65;;
25567;SDS011;13455;51.480;7.594;2023-01-25T03:53:19;41.30;;;25.98;;
25567;SDS011;13455;51.480;7.594;2023-01-25T03:55:54;39.92;;;26.15;;
25567;SDS011;13455;51.480;7.594;2023-01-25T03:58:20;41.08;;;26.00;;
25567;SDS011;13455;51.480;7.594;2023-01-25T04:00:46;40.42;;;25.90;;
25567;SDS011;13455;51.480;7.594;2023-01-25T04:03:12;41.58;;;25.10;;
25567;SDS011;13455;51.480;7.594;2023-01-25T04:05:38;39.22;;;25.60;;
25567;SDS011;13455;51.480;7.594;2023-01-25T04:08:04;41.38;;;25.25;;
25567;SDS011;13455;51.480;7.594;2023-01-25T04:10:30;40.13;;;26.55;;
25567;SDS011;13455;51.480;7.594;2023-01-25T04:12:56;40.73;;;26.47;;
25567;SDS011;13455;51.480;7.594;2023-01-25T04:15:22;40.83;;;25.92;;
25567;SDS011;13455;51.480;7.594;2023-01-25T04:17:48;40.03;;;25.20;;
25567;SDS011;13455;51.480;7.594;2023-01-25T04:20:14;39.72;;;25.25;;
25567;SDS011;13455;51.480;7.594;2023-01-25T04:22:40;40.17;;;25.42;;
25567;SDS011;13455;51.480;7.594;2023-01-25T04:25:06;38.08;;;24.33;;
25567;SDS011;13455;51.480;7.594;2023-01-25T04:27:32;38.92;;;24.27;;
25567;SDS011;13455;51.480;7.594;2023-01-25T04:29:58;40.13;;;25.87;;
25567;SDS011;13455;51.480;7.594;2023-01-25T04:32:24;41.78;;;25.88;;
25567;SDS011;13455;51.480;7.594;2023-01-25T04:34:50;41.72;;;25.83;;
25567;SDS011;13455;51.480;7.594;2023-01-25T04:37:16;41.25;;;26.15;;
25567;SDS011;13455;51.480;7.594;2023-01-25T04:39:42;44.60;;;25.67;;
25567;SDS011;13455;51.480;7.594;2023-01-25T04:42:08;43.03;;;24.13;;
25567;SDS011;13455;51.480;7.594;2023-01-25T04:44:34;39.10;;;23.13;;
25567;SDS011;13455;51.480;7.594;2023-01-25T04:47:00;38.08;;;22.38;;
25567;SDS011;13455;51.480;7.594;2023-01-25T04:49:27;38.60;;;22.50;;
25567;SDS011;13455;51.480;7.594;2023-01-25T04:51:53;38.83;;;22.13;;
25567;SDS011;13455;51.480;7.594;2023-01-25T04:54:19;37.30;;;21.60;;
25567;SDS011;13455;51.480;7.594;2023-01-25T04:56:45;39.27;;;21.43;;
25567;SDS011;13455;51.480;7.594;2023-01-25T04:59:11;39.03;;;22.27;;
25567;SDS011;13455;51.480;7.594;2023-01-25T05:01:37;36.08;;;20.15;;
25567;SDS011;13455;51.480;7.594;2023-01-25T05:04:03;36.35;;;20.38;;
25567;SDS011;13455;51.480;7.594;2023-01-25T05:06:29;36.10;;;20.45;;
25567;SDS011;13455;51.480;7.594;2023-01-25T05:08:55;36.47;;;20.20;;
25567;SDS011;13455;51.480;7.594;2023-01-25T05:11:21;37.15;;;19.70;;
25567;SDS011;13455;51.480;7.594;2023-01-25T05:13:47;32.33;;;18.00;;
25567;SDS011;13455;51.480;7.594;2023-01-25T05:16:13;30.38;;;17.23;;
25567;SDS011;13455;51.480;7.594;2023-01-25T05:18:39;30.85;;;17.30;;
25567;SDS011;13455;51.480;7.594;2023-01-25T05:21:05;29.77;;;17.17;;
25567;SDS011;13455;51.480;7.594;2023-01-25T05:23:51;27.45;;;16.45;;
25567;SDS011;13455;51.480;7.594;2023-01-25T05:26:17;29.00;;;16.55;;
25567;SDS011;13455;51.480;7.594;2023-01-25T05:29:01;25.95;;;15.55;;
25567;SDS011;13455;51.480;7.594;2023-01-25T05:31:27;26.88;;;15.55;;
25567;SDS011;13455;51.480;7.594;2023-01-25T05:33:53;26.73;;;15.90;;
25567;SDS011;13455;51.480;7.594;2023-01-25T05:36:19;28.05;;;16.40;;
25567;SDS011;13455;51.480;7.594;2023-01-25T05:38:46;30.00;;;17.37;;
25567;SDS011;13455;51.480;7.594;2023-01-25T05:41:12;29.65;;;16.98;;
25567;SDS011;13455;51.480;7.594;2023-01-25T05:43:38;28.60;;;17.07;;
25567;SDS011;13455;51.480;7.594;2023-01-25T05:46:04;30.10;;;17.85;;
25567;SDS011;13455;51.480;7.594;2023-01-25T05:48:30;31.83;;;17.65;;
25567;SDS011;13455;51.480;7.594;2023-01-25T05:50:56;28.93;;;17.00;;
25567;SDS011;13455;51.480;7.594;2023-01-25T05:53:26;30.70;;;17.65;;
25567;SDS011;13455;51.480;7.594;2023-01-25T05:55:52;30.13;;;17.90;;
25567;SDS011;13455;51.480;7.594;2023-01-25T05:58:18;30.17;;;17.08;;
25567;SDS011;13455;51.480;7.594;2023-01-25T06:00:44;26.65;;;15.45;;
25567;SDS011;13455;51.480;7.594;2023-01-25T06:03:10;26.70;;;15.30;;
25567;SDS011;13455;51.480;7.594;2023-01-25T06:05:36;27.50;;;15.65;;
25567;SDS011;13455;51.480;7.594;2023-01-25T06:08:02;28.90;;;16.60;;
25567;SDS011;13455;51.480;7.594;2023-01-25T06:10:28;28.45;;;16.55;;
25567;SDS011;13455;51.480;7.594;2023-01-25T06:12:57;29.08;;;17.08;;
25567;SDS011;13455;51.480;7.594;2023-01-25T06:15:24;29.77;;;16.93;;
25567;SDS011;13455;51.480;7.594;2023-01-25T06:17:53;29.75;;;17.38;;
25567;SDS011;13455;51.480;7.594;2023-01-25T06:20:19;29.80;;;16.48;;
25567;SDS011;13455;51.480;7.594;2023-01-25T06:22:49;31.27;;;17.02;;
25567;SDS011;13455;51.480;7.594;2023-01-25T06:25:15;31.77;;;18.03;;
25567;SDS011;13455;51.480;7.594;2023-01-25T06:27:41;29.48;;;17.08;;
25567;SDS011;13455;51.480;7.594;2023-01-25T06:30:07;32.72;;;18.02;;
25567;SDS011;13455;51.480;7.594;2023-01-25T06:32:33;31.75;;;18.08;;
25567;SDS011;13455;51.480;7.594;2023-01-25T06:34:59;29.13;;;17.50;;
25567;SDS011;13455;51.480;7.594;2023-01-25T06:37:25;35.03;;;18.40;;
25567;SDS011;13455;51.480;7.594;2023-01-25T06:39:51;38.72;;;18.50;;
25567;SDS011;13455;51.480;7.594;2023-01-25T06:42:17;33.42;;;18.42;;
25567;SDS011;13455;51.480;7.594;2023-01-25T06:44:43;33.28;;;17.90;;
25567;SDS011;13455;51.480;7.594;2023-01-25T06:47:10;34.75;;;18.70;;
25567;SDS011;13455;51.480;7.594;2023-01-25T06:49:36;32.22;;;17.88;;
25567;SDS011;13455;51.480;7.594;2023-01-25T06:52:02;31.38;;;18.15;;
25567;SDS011;13455;51.480;7.594;2023-01-25T06:54:28;34.63;;;18.35;;
25567;SDS011;13455;51.480;7.594;2023-01-25T06:56:54;31.30;;;17.23;;
25567;SDS011;13455;51.480;7.594;2023-01-25T06:59:20;29.95;;;16.48;;
25567;SDS011;13455;51.480;7.594;2023-01-25T07:01:46;29.48;;;17.15;;
25567;SDS011;13455;51.480;7.594;2023-01-25T07:04:12;29.58;;;16.73;;
25567;SDS011;13455;51.480;7.594;2023-01-25T07:06:38;33.28;;;17.63;;
25567;SDS011;13455;51.480;7.594;2023-01-25T07:09:06;29.55;;;17.23;;
25567;SDS011;13455;51.480;7.594;2023-01-25T07:11:33;37.00;;;17.63;;
25567;SDS011;13455;51.480;7.594;2023-01-25T07:13:59;34.72;;;18.70;;
25567;SDS011;13455;51.480;7.594;2023-01-25T07:16:26;33.97;;;18.92;;
25567;SDS011;13455;51.480;7.594;2023-01-25T07:18:52;33.30;;;17.85;;
25567;SDS011;13455;51.480;7.594;2023-01-25T07:21:19;33.15;;;18.05;;
25567;SDS011;13455;51.480;7.594;2023-01-25T07:23:45;35.80;;;18.08;;
25567;SDS011;13455;51.480;7.594;2023-01-25T07:26:15;33.77;;;17.73;;
25567;SDS011;13455;51.480;7.594;2023-01-25T07:28:42;33.60;;;18.30;;
25567;SDS011;13455;51.480;7.594;2023-01-25T07:31:08;41.13;;;19.30;;
25567;SDS011;13455;51.480;7.594;2023-01-25T07:33:34;36.43;;;18.97;;
25567;SDS011;13455;51.480;7.594;2023-01-25T07:36:04;37.90;;;20.13;;
25567;SDS011;13455;51.480;7.594;2023-01-25T07:38:31;39.17;;;19.98;;
25567;SDS011;13455;51.480;7.594;2023-01-25T07:40:57;36.40;;;19.52;;
25567;SDS011;13455;51.480;7.594;2023-01-25T07:43:23;34.97;;;19.10;;
25567;SDS011;13455;51.480;7.594;2023-01-25T07:45:49;37.33;;;19.50;;
25567;SDS011;13455;51.480;7.594;2023-01-25T07:48:16;38.67;;;20.23;;
25567;SDS011;13455;51.480;7.594;2023-01-25T07:50:42;36.70;;;18.30;;
25567;SDS011;13455;51.480;7.594;2023-01-25T07:53:14;37.40;;;18.10;;
25567;SDS011;13455;51.480;7.594;2023-01-25T07:55:40;36.80;;;18.83;;
25567;SDS011;13455;51.480;7.594;2023-01-25T07:58:07;37.15;;;18.80;;
25567;SDS011;13455;51.480;7.594;2023-01-25T08:00:33;37.33;;;18.83;;
25567;SDS011;13455;51.480;7.594;2023-01-25T08:02:59;40.22;;;18.88;;
25567;SDS011;13455;51.480;7.594;2023-01-25T08:05:25;46.00;;;18.73;;
25567;SDS011;13455;51.480;7.594;2023-01-25T08:07:51;41.88;;;19.48;;
25567;SDS011;13455;51.480;7.594;2023-01-25T08:10:17;77.97;;;19.05;;
25567;SDS011;13455;51.480;7.594;2023-01-25T08:12:43;49.53;;;20.40;;
25567;SDS011;13455;51.480;7.594;2023-01-25T08:15:10;40.88;;;19.13;;
25567;SDS011;13455;51.480;7.594;2023-01-25T08:17:36;39.83;;;19.88;;
25567;SDS011;13455;51.480;7.594;2023-01-25T08:20:03;38.22;;;20.60;;
25567;SDS011;13455;51.480;7.594;2023-01-25T08:22:30;38.53;;;20.17;;
25567;SDS011;13455;51.480;7.594;2023-01-25T08:24:56;43.47;;;20.67;;
25567;SDS011;13455;51.480;7.594;2023-01-25T08:27:23;40.27;;;20.60;;
25567;SDS011;13455;51.480;7.594;2023-01-25T08:29:49;43.63;;;20.92;;
25567;SDS011;13455;51.480;7.594;2023-01-25T08:32:15;53.50;;;20.77;;
25567;SDS011;13455;51.480;7.594;2023-01-25T08:34:41;41.58;;;20.63;;
25567;SDS011;13455;51.480;7.594;2023-01-25T08:37:07;41.03;;;21.17;;
25567;SDS011;13455;51.480;7.594;2023-01-25T08:39:33;42.55;;;22.00;;
25567;SDS011;13455;51.480;7.594;2023-01-25T08:41:59;49.83;;;22.13;;
25567;SDS011;13455;51.480;7.594;2023-01-25T08:44:25;52.47;;;21.40;;
25567;SDS011;13455;51.480;7.594;2023-01-25T08:46:51;44.83;;;22.42;;
25567;SDS011;13455;51.480;7.594;2023-01-25T08:49:17;42.20;;;21.75;;
25567;SDS011;13455;51.480;7.594;2023-01-25T08:51:43;44.27;;;21.10;;
25567;SDS011;13455;51.480;7.594;2023-01-25T08:54:10;42.93;;;21.20;;
25567;SDS011;13455;51.480;7.594;2023-01-25T08:56:37;40.55;;;20.70;;
25567;SDS011;13455;51.480;7.594;2023-01-25T08:59:03;53.05;;;21.25;;
25567;SDS011;13455;51.480;7.594;2023-01-25T09:01:30;46.35;;;22.38;;
25567;SDS011;13455;51.480;7.594;2023-01-25T09:03:56;114.70;;;21.57;;
25567;SDS011;13455;51.480;7.594;2023-01-25T09:06:22;61.13;;;21.40;;
25567;SDS011;13455;51.480;7.594;2023-01-25T09:08:48;54.10;;;21.77;;
25567;SDS011;13455;51.480;7.594;2023-01-25T09:11:18;47.23;;;21.77;;
25567;SDS011;13455;51.480;7.594;2023-01-25T09:13:44;50.42;;;22.83;;
25567;SDS011;13455;51.480;7.594;2023-01-25T09:16:16;50.73;;;22.03;;
25567;SDS011;13455;51.480;7.594;2023-01-25T09:18:44;49.37;;;23.40;;
25567;SDS011;13455;51.480;7.594;2023-01-25T09:21:12;49.08;;;23.13;;
25567;SDS011;13455;51.480;7.594;2023-01-25T09:23:39;49.33;;;23.10;;
25567;SDS011;13455;51.480;7.594;2023-01-25T09:26:08;54.90;;;23.70;;
25567;SDS011;13455;51.480;7.594;2023-01-25T09:28:34;48.35;;;23.38;;
25567;SDS011;13455;51.480;7.594;2023-01-25T09:31:01;47.72;;;24.65;;
25567;SDS011;13455;51.480;7.594;2023-01-25T09:33:30;50.70;;;23.75;;
25567;SDS011;13455;51.480;7.594;2023-01-25T09:35:56;63.85;;;23.60;;
25567;SDS011;13455;51.480;7.594;2023-01-25T09:38:22;92.07;;;21.73;;
25567;SDS011;13455;51.480;7.594;2023-01-25T09:54:39;50.10;;;23.40;;
25567;SDS011;13455;51.480;7.594;2023-01-25T09:57:18;52.80;;;24.33;;
25567;SDS011;13455;51.480;7.594;2023-01-25T09:59:49;53.70;;;23.25;;
25567;SDS011;13455;51.480;7.594;2023-01-25T10:04:53;53.63;;;25.65;;
25567;SDS011;13455;51.480;7.594;2023-01-25T10:10:03;127.22;;;25.10;;
25567;SDS011;13455;51.480;7.594;2023-01-25T10:12:38;74.80;;;24.85;;
25567;SDS011;13455;51.480;7.594;2023-01-25T10:15:15;55.60;;;24.57;;
25567;SDS011;13455;51.480;7.594;2023-01-25T10:17:47;59.60;;;24.23;;
25567;SDS011;13455;51.480;7.594;2023-01-25T10:20:34;66.78;;;25.40;;
25567;SDS011;13455;51.480;7.594;2023-01-25T10:26:18;70.30;;;25.08;;
25567;SDS011;13455;51.480;7.594;2023-01-25T10:31:45;87.90;;;25.45;;
25567;SDS011;13455;51.480;7.594;2023-01-25T10:36:44;61.63;;;27.65;;
25567;SDS011;13455;51.480;7.594;2023-01-25T10:39:12;54.88;;;25.30;;
25567;SDS011;13455;51.480;7.594;2023-01-25T10:42:12;51.55;;;24.67;;
25567;SDS011;13455;51.480;7.594;2023-01-25T10:44:33;56.10;;;25.35;;
25567;SDS011;13455;51.480;7.594;2023-01-25T10:49:38;62.45;;;24.58;;
25567;SDS011;13455;51.480;7.594;2023-01-25T10:55:03;53.10;;;25.47;;
25567;SDS011;13455;51.480;7.594;2023-01-25T10:57:48;52.92;;;25.50;;
25567;SDS011;13455;51.480;7.594;2023-01-25T11:00:22;56.58;;;26.55;;
25567;SDS011;13455;51.480;7.594;2023-01-25T11:03:04;69.07;;;28.52;;
25567;SDS011;13455;51.480;7.594;2023-01-25T11:10:57;47.05;;;22.75;;
25567;SDS011;13455;51.480;7.594;2023-01-25T11:13:24;46.67;;;23.17;;
25567;SDS011;13455;51.480;7.594;2023-01-25T11:18:27;47.23;;;24.33;;
25567;SDS011;13455;51.480;7.594;2023-01-25T11:23:29;44.17;;;21.50;;
25567;SDS011;13455;51.480;7.594;2023-01-25T11:26:09;41.25;;;21.10;;
25567;SDS011;13455;51.480;7.594;2023-01-25T11:28:35;38.83;;;20.42;;
25567;SDS011;13455;51.480;7.594;2023-01-25T11:31:01;39.25;;;20.25;;
25567;SDS011;13455;51.480;7.594;2023-01-25T11:33:27;41.78;;;20.85;;
25567;SDS011;13455;51.480;7.594;2023-01-25T11:36:03;45.83;;;21.52;;
25567;SDS011;13455;51.480;7.594;2023-01-25T11:38:34;43.37;;;22.37;;
25567;SDS011;13455;51.480;7.594;2023-01-25T11:41:11;50.83;;;22.83;;
25567;SDS011;13455;51.480;7.594;2023-01-25T11:52:38;52.35;;;26.10;;
25567;SDS011;13455;51.480;7.594;2023-01-25T12:11:58;44.90;;;22.33;;
25567;SDS011;13455;51.480;7.594;2023-01-25T12:14:46;46.60;;;21.42;;
25567;SDS011;13455;51.480;7.594;2023-01-25T12:17:25;39.75;;;19.70;;
25567;SDS011;13455;51.480;7.594;2023-01-25T12:31:53;40.30;;;20.08;;
25567;SDS011;13455;51.480;7.594;2023-01-25T12:34:41;51.45;;;25.33;;
25567;SDS011;13455;51.480;7.594;2023-01-25T12:37:14;37.38;;;19.27;;
25567;SDS011;13455;51.480;7.594;2023-01-25T12:40:08;37.33;;;17.55;;
25567;SDS011;13455;51.480;7.594;2023-01-25T12:42:45;30.85;;;16.13;;
25567;SDS011;13455;51.480;7.594;2023-01-25T12:45:18;29.90;;;16.13;;
25567;SDS011;13455;51.480;7.594;2023-01-25T12:47:54;33.15;;;16.33;;
25567;SDS011;13455;51.480;7.594;2023-01-25T12:52:55;30.73;;;16.60;;
25567;SDS011;13455;51.480;7.594;2023-01-25T12:55:28;30.88;;;16.05;;
25567;SDS011;13455;51.480;7.594;2023-01-25T13:10:53;31.03;;;16.23;;
25567;SDS011;13455;51.480;7.594;2023-01-25T13:13:30;33.10;;;16.17;;
25567;SDS011;13455;51.480;7.594;2023-01-25T13:15:57;31.98;;;16.52;;
25567;SDS011;13455;51.480;7.594;2023-01-25T13:18:43;32.97;;;17.77;;
25567;SDS011;13455;51.480;7.594;2023-01-25T13:21:36;34.10;;;17.80;;
25567;SDS011;13455;51.480;7.594;2023-01-25T13:24:06;35.28;;;18.35;;
25567;SDS011;13455;51.480;7.594;2023-01-25T13:26:56;33.00;;;18.37;;
25567;SDS011;13455;51.480;7.594;2023-01-25T13:32:00;33.80;;;18.60;;
25567;SDS011;13455;51.480;7.594;2023-01-25T13:37:16;40.30;;;21.33;;
25567;SDS011;13455;51.480;7.594;2023-01-25T13:39:57;38.50;;;20.90;;
25567;SDS011;13455;51.480;7.594;2023-01-25T13:42:25;37.70;;;19.77;;
25567;SDS011;13455;51.480;7.594;2023-01-25T13:44:58;41.22;;;22.15;;
25567;SDS011;13455;51.480;7.594;2023-01-25T13:47:32;39.25;;;20.38;;
25567;SDS011;13455;51.480;7.594;2023-01-25T13:55:23;39.00;;;20.70;;
25567;SDS011;13455;51.480;7.594;2023-01-25T13:57:49;41.72;;;22.65;;
25567;SDS011;13455;51.480;7.594;2023-01-25T14:00:15;43.90;;;22.48;;
25567;SDS011;13455;51.480;7.594;2023-01-25T14:02:43;42.65;;;22.40;;
25567;SDS011;13455;51.480;7.594;2023-01-25T14:05:20;42.05;;;21.60;;
25567;SDS011;13455;51.480;7.594;2023-01-25T14:07:49;40.60;;;19.90;;
25567;SDS011;13455;51.480;7.594;2023-01-25T14:10:24;44.55;;;23.30;;
25567;SDS011;13455;51.480;7.594;2023-01-25T14:12:52;47.60;;;24.45;;
25567;SDS011;13455;51.480;7.594;2023-01-25T14:15:24;36.13;;;19.88;;
25567;SDS011;13455;51.480;7.594;2023-01-25T14:20:46;35.28;;;19.13;;
25567;SDS011;13455;51.480;7.594;2023-01-25T14:23:21;43.72;;;24.83;;
25567;SDS011;13455;51.480;7.594;2023-01-25T14:25:47;54.30;;;27.98;;
25567;SDS011;13455;51.480;7.594;2023-01-25T14:28:13;36.85;;;19.75;;
25567;SDS011;13455;51.480;7.594;2023-01-25T14:30:38;38.25;;;20.33;;
25567;SDS011;13455;51.480;7.594;2023-01-25T14:33:18;38.50;;;21.30;;
25567;SDS011;13455;51.480;7.594;2023-01-25T14:35:51;34.22;;;17.65;;
25567;SDS011;13455;51.480;7.594;2023-01-25T14:40:57;33.42;;;17.83;;
25567;SDS011;13455;51.480;7.594;2023-01-25T14:43:36;34.38;;;18.73;;
25567;SDS011;13455;51.480;7.594;2023-01-25T14:48:50;50.85;;;25.85;;
25567;SDS011;13455;51.480;7.594;2023-01-25T14:51:30;38.55;;;21.15;;
25567;SDS011;13455;51.480;7.594;2023-01-25T14:54:03;45.25;;;24.50;;
25567;SDS011;13455;51.480;7.594;2023-01-25T15:02:02;41.10;;;20.67;;
25567;SDS011;13455;51.480;7.594;2023-01-25T15:04:54;36.55;;;18.50;;
25567;SDS011;13455;51.480;7.594;2023-01-25T15:07:45;38.90;;;20.52;;
25567;SDS011;13455;51.480;7.594;2023-01-25T15:10:22;35.43;;;18.43;;
25567;SDS011;13455;51.480;7.594;2023-01-25T15:15:20;36.53;;;18.75;;
25567;SDS011;13455;51.480;7.594;2023-01-25T15:17:48;35.05;;;18.08;;
25567;SDS011;13455;51.480;7.594;2023-01-25T15:20:26;32.90;;;17.63;;
25567;SDS011;13455;51.480;7.594;2023-01-25T15:23:22;34.03;;;17.67;;
25567;SDS011;13455;51.480;7.594;2023-01-25T15:25:56;37.42;;;18.80;;
25567;SDS011;13455;51.480;7.594;2023-01-25T15:28:24;41.22;;;21.38;;
25567;SDS011;13455;51.480;7.594;2023-01-25T15:30:51;33.30;;;17.73;;
25567;SDS011;13455;51.480;7.594;2023-01-25T15:33:18;32.90;;;17.17;;
25567;SDS011;13455;51.480;7.594;2023-01-25T15:35:47;31.73;;;17.27;;
25567;SDS011;13455;51.480;7.594;2023-01-25T15:38:14;32.15;;;17.00;;
25567;SDS011;13455;51.480;7.594;2023-01-25T15:40:41;33.25;;;17.50;;
25567;SDS011;13455;51.480;7.594;2023-01-25T15:43:10;35.17;;;18.90;;
25567;SDS011;13455;51.480;7.594;2023-01-25T15:45:37;33.17;;;18.17;;
25567;SDS011;13455;51.480;7.594;2023-01-25T15:48:04;32.25;;;18.27;;
25567;SDS011;13455;51.480;7.594;2023-01-25T15:50:30;38.65;;;19.30;;
25567;SDS011;13455;51.480;7.594;2023-01-25T15:52:55;38.67;;;19.07;;
25567;SDS011;13455;51.480;7.594;2023-01-25T15:55:21;36.83;;;19.17;;
25567;SDS011;13455;51.480;7.594;2023-01-25T15:57:48;36.33;;;18.10;;
25567;SDS011;13455;51.480;7.594;2023-01-25T16:00:17;38.20;;;19.23;;
25567;SDS011;13455;51.480;7.594;2023-01-25T16:02:46;35.03;;;18.47;;
25567;SDS011;13455;51.480;7.594;2023-01-25T16:05:12;35.83;;;18.63;;
25567;SDS011;13455;51.480;7.594;2023-01-25T16:07:38;39.57;;;19.63;;
25567;SDS011;13455;51.480;7.594;2023-01-25T16:10:10;38.30;;;18.85;;
25567;SDS011;13455;51.480;7.594;2023-01-25T16:12:44;39.47;;;20.00;;
25567;SDS011;13455;51.480;7.594;2023-01-25T16:15:09;45.78;;;21.52;;
25567;SDS011;13455;51.480;7.594;2023-01-25T16:17:35;71.40;;;32.83;;
25567;SDS011;13455;51.480;7.594;2023-01-25T16:20:01;77.22;;;36.65;;
25567;SDS011;13455;51.480;7.594;2023-01-25T16:22:26;56.22;;;28.05;;
25567;SDS011;13455;51.480;7.594;2023-01-25T16:24:52;48.90;;;25.10;;
25567;SDS011;13455;51.480;7.594;2023-01-25T16:27:18;45.00;;;21.90;;
25567;SDS011;13455;51.480;7.594;2023-01-25T16:29:50;47.67;;;22.38;;
25567;SDS011;13455;51.480;7.594;2023-01-25T16:32:16;47.30;;;22.65;;
25567;SDS011;13455;51.480;7.594;2023-01-25T16:34:42;49.88;;;23.58;;
25567;SDS011;13455;51.480;7.594;2023-01-25T16:37:12;48.23;;;23.97;;
25567;SDS011;13455;51.480;7.594;2023-01-25T16:39:39;52.83;;;25.40;;
25567;SDS011;13455;51.480;7.594;2023-01-25T16:42:05;48.10;;;23.80;;